Terminal Aerodrome Forecast
Issued by NWS Portland, OR

Home | Current Version | Previous Version | Text Only | Print | Product List | Glossary On
Versions: 1 2 3 4 5 6 7 8 9 10 11 12 13 14 15 16 17 18 19 20 21 22 23 24 25 26 27 28
000
FTUS46 KPQR 100156 AAA
TAFEUG
TAF AMD
KEUG 100156Z 1002/1024 01010KT P6SM SKC
     FM100900 30004KT P6SM SKC
     FM101600 36009KT P6SM SKC
     FM101900 34010G18KT P6SM SKC=

USA.gov is the U.S. government's official web portal to all federal, state and local government web resources and services.